Weather at Campo di Volo Paretano Fly

Public forecast

Using degrees Celsius for public forecast. Weather courtesy of forecast.io.

Closest aviation weather report (METAR) to Campo di Volo Paretano Fly

Closest report is Gioia Del Colle Air Base, 16.3 nm (30.3 km) WSW.

2023/02/07 23:55 (retrieved 23 minutes ago)

LIBV 072355Z 30004KT CAVOK 01/M03 Q1029

Closest aviation forecast (TAF) to Campo di Volo Paretano Fly

Forecast is more than 6 hours old.

Closest forecast is Foggia "Gino Lisa" Airport, 87.3 nm (161.6 km) WNW.

2023/02/07 18:00 Ammendment (retrieved 6 hours ago)

TAF AMD LIBF 072206Z 0718/0818 CNL